sensor_id;sensor_type;location;lat;lon;timestamp;P1;durP1;ratioP1;P2;durP2;ratioP2
53287;SDS011;39172;45.550;12.072;2022-10-31T00:04:59;8.05;;;6.40;;
53287;SDS011;39172;45.550;12.072;2022-10-31T00:11:00;5.88;;;4.50;;
53287;SDS011;39172;45.550;12.072;2022-10-31T00:17:02;7.75;;;6.25;;
53287;SDS011;39172;45.550;12.072;2022-10-31T00:23:03;9.05;;;6.72;;
53287;SDS011;39172;45.550;12.072;2022-10-31T00:29:04;8.68;;;7.00;;
53287;SDS011;39172;45.550;12.072;2022-10-31T00:35:05;9.63;;;6.70;;
53287;SDS011;39172;45.550;12.072;2022-10-31T00:41:06;8.48;;;6.82;;
53287;SDS011;39172;45.550;12.072;2022-10-31T00:47:07;8.63;;;6.80;;
53287;SDS011;39172;45.550;12.072;2022-10-31T00:53:08;9.20;;;6.90;;
53287;SDS011;39172;45.550;12.072;2022-10-31T00:59:09;10.40;;;7.15;;
53287;SDS011;39172;45.550;12.072;2022-10-31T01:05:10;9.38;;;7.03;;
53287;SDS011;39172;45.550;12.072;2022-10-31T01:17:14;8.60;;;6.45;;
53287;SDS011;39172;45.550;12.072;2022-10-31T01:23:15;9.20;;;6.90;;
53287;SDS011;39172;45.550;12.072;2022-10-31T01:29:16;8.13;;;5.97;;
53287;SDS011;39172;45.550;12.072;2022-10-31T01:35:17;8.88;;;6.47;;
53287;SDS011;39172;45.550;12.072;2022-10-31T01:41:20;7.57;;;5.95;;
53287;SDS011;39172;45.550;12.072;2022-10-31T01:47:25;7.50;;;6.25;;
53287;SDS011;39172;45.550;12.072;2022-10-31T01:53:28;9.35;;;6.95;;
53287;SDS011;39172;45.550;12.072;2022-10-31T01:59:30;8.75;;;6.60;;
53287;SDS011;39172;45.550;12.072;2022-10-31T02:05:32;6.90;;;5.55;;
53287;SDS011;39172;45.550;12.072;2022-10-31T02:11:34;7.15;;;5.75;;
53287;SDS011;39172;45.550;12.072;2022-10-31T02:17:36;8.50;;;6.05;;
53287;SDS011;39172;45.550;12.072;2022-10-31T02:30:07;7.20;;;5.45;;
53287;SDS011;39172;45.550;12.072;2022-10-31T02:48:19;7.88;;;5.55;;
53287;SDS011;39172;45.550;12.072;2022-10-31T02:54:23;8.45;;;5.30;;
53287;SDS011;39172;45.550;12.072;2022-10-31T03:00:27;8.40;;;5.90;;
53287;SDS011;39172;45.550;12.072;2022-10-31T03:18:40;8.13;;;5.88;;
53287;SDS011;39172;45.550;12.072;2022-10-31T03:24:44;7.03;;;4.90;;
53287;SDS011;39172;45.550;12.072;2022-10-31T03:30:45;8.40;;;5.72;;
53287;SDS011;39172;45.550;12.072;2022-10-31T03:36:48;6.70;;;4.82;;
53287;SDS011;39172;45.550;12.072;2022-10-31T03:43:00;6.72;;;4.97;;
53287;SDS011;39172;45.550;12.072;2022-10-31T03:49:06;6.15;;;4.63;;
53287;SDS011;39172;45.550;12.072;2022-10-31T03:55:28;6.35;;;4.50;;
53287;SDS011;39172;45.550;12.072;2022-10-31T04:01:30;5.85;;;4.50;;
53287;SDS011;39172;45.550;12.072;2022-10-31T04:07:41;5.47;;;4.30;;
53287;SDS011;39172;45.550;12.072;2022-10-31T04:13:43;4.45;;;3.33;;
53287;SDS011;39172;45.550;12.072;2022-10-31T04:19:49;4.50;;;3.60;;
53287;SDS011;39172;45.550;12.072;2022-10-31T04:25:49;4.90;;;3.70;;
53287;SDS011;39172;45.550;12.072;2022-10-31T04:31:51;4.05;;;3.30;;
53287;SDS011;39172;45.550;12.072;2022-10-31T04:37:52;3.38;;;2.85;;
53287;SDS011;39172;45.550;12.072;2022-10-31T04:43:53;4.53;;;2.88;;
53287;SDS011;39172;45.550;12.072;2022-10-31T04:49:54;4.95;;;3.78;;
53287;SDS011;39172;45.550;12.072;2022-10-31T04:55:57;5.53;;;4.65;;
53287;SDS011;39172;45.550;12.072;2022-10-31T05:01:59;6.47;;;4.55;;
53287;SDS011;39172;45.550;12.072;2022-10-31T05:08:35;5.47;;;4.30;;
53287;SDS011;39172;45.550;12.072;2022-10-31T05:14:39;5.97;;;4.35;;
53287;SDS011;39172;45.550;12.072;2022-10-31T05:21:03;5.97;;;4.78;;
53287;SDS011;39172;45.550;12.072;2022-10-31T05:27:12;6.75;;;5.07;;
53287;SDS011;39172;45.550;12.072;2022-10-31T05:33:14;5.35;;;4.43;;
53287;SDS011;39172;45.550;12.072;2022-10-31T05:39:27;5.53;;;3.88;;
53287;SDS011;39172;45.550;12.072;2022-10-31T05:45:31;5.78;;;4.57;;
53287;SDS011;39172;45.550;12.072;2022-10-31T05:51:36;6.63;;;4.75;;
53287;SDS011;39172;45.550;12.072;2022-10-31T05:57:38;7.72;;;4.47;;
53287;SDS011;39172;45.550;12.072;2022-10-31T06:03:39;5.60;;;4.22;;
53287;SDS011;39172;45.550;12.072;2022-10-31T06:09:43;6.95;;;4.50;;
53287;SDS011;39172;45.550;12.072;2022-10-31T06:15:44;5.43;;;4.20;;
53287;SDS011;39172;45.550;12.072;2022-10-31T06:21:47;5.13;;;4.20;;
53287;SDS011;39172;45.550;12.072;2022-10-31T06:27:47;4.40;;;3.70;;
53287;SDS011;39172;45.550;12.072;2022-10-31T06:33:49;4.25;;;3.22;;
53287;SDS011;39172;45.550;12.072;2022-10-31T06:39:50;3.95;;;3.05;;
53287;SDS011;39172;45.550;12.072;2022-10-31T06:45:51;3.60;;;2.92;;
53287;SDS011;39172;45.550;12.072;2022-10-31T06:51:58;3.25;;;2.45;;
53287;SDS011;39172;45.550;12.072;2022-10-31T06:57:59;3.78;;;2.83;;
53287;SDS011;39172;45.550;12.072;2022-10-31T07:04:00;2.60;;;2.03;;
53287;SDS011;39172;45.550;12.072;2022-10-31T07:10:01;2.65;;;1.85;;
53287;SDS011;39172;45.550;12.072;2022-10-31T07:16:27;5.72;;;4.13;;
53287;SDS011;39172;45.550;12.072;2022-10-31T07:22:34;3.33;;;2.10;;
53287;SDS011;39172;45.550;12.072;2022-10-31T07:28:37;3.17;;;2.10;;
53287;SDS011;39172;45.550;12.072;2022-10-31T07:34:39;3.03;;;2.10;;
53287;SDS011;39172;45.550;12.072;2022-10-31T07:40:53;2.95;;;1.83;;
53287;SDS011;39172;45.550;12.072;2022-10-31T07:46:54;6.47;;;4.22;;
53287;SDS011;39172;45.550;12.072;2022-10-31T07:53:14;3.08;;;2.25;;
53287;SDS011;39172;45.550;12.072;2022-10-31T07:59:24;4.75;;;2.78;;
53287;SDS011;39172;45.550;12.072;2022-10-31T08:05:27;5.28;;;4.00;;
53287;SDS011;39172;45.550;12.072;2022-10-31T08:12:00;7.50;;;3.50;;
53287;SDS011;39172;45.550;12.072;2022-10-31T08:18:02;6.55;;;4.20;;
53287;SDS011;39172;45.550;12.072;2022-10-31T08:24:04;5.63;;;3.63;;
53287;SDS011;39172;45.550;12.072;2022-10-31T08:30:05;5.00;;;3.20;;
53287;SDS011;39172;45.550;12.072;2022-10-31T08:36:08;4.65;;;3.22;;
53287;SDS011;39172;45.550;12.072;2022-10-31T08:42:24;4.50;;;3.25;;
53287;SDS011;39172;45.550;12.072;2022-10-31T08:48:26;5.60;;;2.80;;
53287;SDS011;39172;45.550;12.072;2022-10-31T08:54:27;4.65;;;3.17;;
53287;SDS011;39172;45.550;12.072;2022-10-31T09:00:31;3.72;;;3.15;;
53287;SDS011;39172;45.550;12.072;2022-10-31T09:06:36;5.95;;;4.40;;
53287;SDS011;39172;45.550;12.072;2022-10-31T09:12:38;6.13;;;4.50;;
53287;SDS011;39172;45.550;12.072;2022-10-31T09:18:57;5.27;;;3.80;;
53287;SDS011;39172;45.550;12.072;2022-10-31T09:24:59;10.23;;;7.00;;
53287;SDS011;39172;45.550;12.072;2022-10-31T09:31:00;13.45;;;9.55;;
53287;SDS011;39172;45.550;12.072;2022-10-31T09:37:21;10.50;;;7.38;;
53287;SDS011;39172;45.550;12.072;2022-10-31T09:55:45;5.95;;;4.25;;
53287;SDS011;39172;45.550;12.072;2022-10-31T10:01:49;7.38;;;5.28;;
53287;SDS011;39172;45.550;12.072;2022-10-31T10:08:04;5.70;;;3.40;;
53287;SDS011;39172;45.550;12.072;2022-10-31T10:14:30;4.43;;;3.05;;
53287;SDS011;39172;45.550;12.072;2022-10-31T10:20:44;4.13;;;3.13;;
53287;SDS011;39172;45.550;12.072;2022-10-31T10:33:11;4.10;;;2.77;;
53287;SDS011;39172;45.550;12.072;2022-10-31T10:45:17;9.10;;;5.38;;
53287;SDS011;39172;45.550;12.072;2022-10-31T10:51:39;9.65;;;5.63;;
53287;SDS011;39172;45.550;12.072;2022-10-31T11:03:42;6.88;;;4.00;;
53287;SDS011;39172;45.550;12.072;2022-10-31T11:09:43;6.35;;;4.00;;
53287;SDS011;39172;45.550;12.072;2022-10-31T11:16:00;6.97;;;4.30;;
53287;SDS011;39172;45.550;12.072;2022-10-31T11:22:08;3.42;;;2.38;;
53287;SDS011;39172;45.550;12.072;2022-10-31T11:28:14;3.92;;;2.75;;
53287;SDS011;39172;45.550;12.072;2022-10-31T11:34:22;5.35;;;3.83;;
53287;SDS011;39172;45.550;12.072;2022-10-31T11:40:26;7.70;;;4.90;;
53287;SDS011;39172;45.550;12.072;2022-10-31T11:46:37;4.50;;;2.90;;
53287;SDS011;39172;45.550;12.072;2022-10-31T11:52:39;8.57;;;4.85;;
53287;SDS011;39172;45.550;12.072;2022-10-31T11:58:40;4.68;;;2.88;;
53287;SDS011;39172;45.550;12.072;2022-10-31T12:04:43;7.00;;;3.67;;
53287;SDS011;39172;45.550;12.072;2022-10-31T12:11:04;5.97;;;3.63;;
53287;SDS011;39172;45.550;12.072;2022-10-31T12:17:16;7.47;;;4.10;;
53287;SDS011;39172;45.550;12.072;2022-10-31T12:53:29;8.60;;;5.20;;
53287;SDS011;39172;45.550;12.072;2022-10-31T12:59:37;7.82;;;4.43;;
53287;SDS011;39172;45.550;12.072;2022-10-31T13:05:40;5.10;;;3.30;;
53287;SDS011;39172;45.550;12.072;2022-10-31T13:11:53;8.02;;;4.55;;
53287;SDS011;39172;45.550;12.072;2022-10-31T13:17:58;5.45;;;3.42;;
53287;SDS011;39172;45.550;12.072;2022-10-31T13:24:01;5.32;;;3.45;;
53287;SDS011;39172;45.550;12.072;2022-10-31T13:30:13;7.10;;;3.88;;
53287;SDS011;39172;45.550;12.072;2022-10-31T13:54:33;6.53;;;3.30;;
53287;SDS011;39172;45.550;12.072;2022-10-31T14:00:34;6.00;;;3.10;;
53287;SDS011;39172;45.550;12.072;2022-10-31T14:12:43;5.75;;;3.03;;
53287;SDS011;39172;45.550;12.072;2022-10-31T14:18:47;5.85;;;3.33;;
53287;SDS011;39172;45.550;12.072;2022-10-31T14:24:49;3.90;;;2.22;;
53287;SDS011;39172;45.550;12.072;2022-10-31T14:30:54;4.80;;;2.85;;
53287;SDS011;39172;45.550;12.072;2022-10-31T14:37:06;4.70;;;3.20;;
53287;SDS011;39172;45.550;12.072;2022-10-31T14:55:23;5.55;;;3.30;;
53287;SDS011;39172;45.550;12.072;2022-10-31T15:01:27;5.07;;;2.95;;
53287;SDS011;39172;45.550;12.072;2022-10-31T15:07:29;5.72;;;2.92;;
53287;SDS011;39172;45.550;12.072;2022-10-31T15:13:30;5.85;;;3.13;;
53287;SDS011;39172;45.550;12.072;2022-10-31T15:19:32;5.57;;;2.67;;
53287;SDS011;39172;45.550;12.072;2022-10-31T15:25:33;4.55;;;2.80;;
53287;SDS011;39172;45.550;12.072;2022-10-31T15:31:35;4.90;;;3.17;;
53287;SDS011;39172;45.550;12.072;2022-10-31T15:37:36;6.05;;;2.95;;
53287;SDS011;39172;45.550;12.072;2022-10-31T15:43:37;6.25;;;3.28;;
53287;SDS011;39172;45.550;12.072;2022-10-31T15:49:40;3.47;;;2.40;;
53287;SDS011;39172;45.550;12.072;2022-10-31T16:02:12;3.40;;;2.13;;
53287;SDS011;39172;45.550;12.072;2022-10-31T16:14:27;4.82;;;3.33;;
53287;SDS011;39172;45.550;12.072;2022-10-31T16:20:29;2.13;;;1.50;;
53287;SDS011;39172;45.550;12.072;2022-10-31T16:26:32;2.97;;;2.08;;
53287;SDS011;39172;45.550;12.072;2022-10-31T16:32:35;7.75;;;4.35;;
53287;SDS011;39172;45.550;12.072;2022-10-31T16:38:36;6.07;;;3.50;;
53287;SDS011;39172;45.550;12.072;2022-10-31T16:44:37;5.18;;;3.55;;
53287;SDS011;39172;45.550;12.072;2022-10-31T16:50:38;6.10;;;3.53;;
53287;SDS011;39172;45.550;12.072;2022-10-31T16:56:39;9.38;;;5.43;;
53287;SDS011;39172;45.550;12.072;2022-10-31T17:02:40;5.80;;;3.55;;
53287;SDS011;39172;45.550;12.072;2022-10-31T17:08:41;5.95;;;3.25;;
53287;SDS011;39172;45.550;12.072;2022-10-31T17:14:42;7.47;;;4.35;;
53287;SDS011;39172;45.550;12.072;2022-10-31T17:20:43;6.38;;;4.50;;
53287;SDS011;39172;45.550;12.072;2022-10-31T17:26:44;4.45;;;3.25;;
53287;SDS011;39172;45.550;12.072;2022-10-31T17:32:47;3.58;;;2.42;;
53287;SDS011;39172;45.550;12.072;2022-10-31T17:38:48;4.97;;;3.28;;
53287;SDS011;39172;45.550;12.072;2022-10-31T17:44:49;4.80;;;2.90;;
53287;SDS011;39172;45.550;12.072;2022-10-31T17:50:50;3.50;;;2.30;;
53287;SDS011;39172;45.550;12.072;2022-10-31T17:56:52;5.45;;;3.38;;
53287;SDS011;39172;45.550;12.072;2022-10-31T18:02:53;16.67;;;11.52;;
53287;SDS011;39172;45.550;12.072;2022-10-31T18:08:54;12.18;;;8.30;;
53287;SDS011;39172;45.550;12.072;2022-10-31T18:14:57;5.32;;;3.60;;
53287;SDS011;39172;45.550;12.072;2022-10-31T18:20:58;5.20;;;3.33;;
53287;SDS011;39172;45.550;12.072;2022-10-31T18:26:59;4.78;;;3.28;;
53287;SDS011;39172;45.550;12.072;2022-10-31T18:33:00;4.68;;;3.10;;
53287;SDS011;39172;45.550;12.072;2022-10-31T18:39:01;4.82;;;3.67;;
53287;SDS011;39172;45.550;12.072;2022-10-31T18:45:03;4.95;;;3.72;;
53287;SDS011;39172;45.550;12.072;2022-10-31T18:51:04;4.70;;;3.38;;
53287;SDS011;39172;45.550;12.072;2022-10-31T18:57:06;5.93;;;3.78;;
53287;SDS011;39172;45.550;12.072;2022-10-31T19:03:06;8.48;;;5.65;;
53287;SDS011;39172;45.550;12.072;2022-10-31T19:09:07;7.30;;;4.80;;
53287;SDS011;39172;45.550;12.072;2022-10-31T19:15:09;6.82;;;4.60;;
53287;SDS011;39172;45.550;12.072;2022-10-31T19:21:12;6.07;;;4.60;;
53287;SDS011;39172;45.550;12.072;2022-10-31T19:27:13;8.07;;;5.97;;
53287;SDS011;39172;45.550;12.072;2022-10-31T19:33:14;6.10;;;4.70;;
53287;SDS011;39172;45.550;12.072;2022-10-31T19:39:15;5.35;;;4.05;;
53287;SDS011;39172;45.550;12.072;2022-10-31T19:45:16;4.47;;;3.33;;
53287;SDS011;39172;45.550;12.072;2022-10-31T19:51:18;5.13;;;3.67;;
53287;SDS011;39172;45.550;12.072;2022-10-31T19:57:19;6.45;;;4.20;;
53287;SDS011;39172;45.550;12.072;2022-10-31T20:03:20;14.18;;;10.43;;
53287;SDS011;39172;45.550;12.072;2022-10-31T20:09:21;16.00;;;10.63;;
53287;SDS011;39172;45.550;12.072;2022-10-31T20:15:22;11.98;;;7.53;;
53287;SDS011;39172;45.550;12.072;2022-10-31T20:21:26;20.13;;;13.40;;
53287;SDS011;39172;45.550;12.072;2022-10-31T20:27:27;14.20;;;8.75;;
53287;SDS011;39172;45.550;12.072;2022-10-31T20:33:28;12.65;;;7.70;;
53287;SDS011;39172;45.550;12.072;2022-10-31T20:39:30;15.43;;;9.82;;
53287;SDS011;39172;45.550;12.072;2022-10-31T20:45:31;20.75;;;11.65;;
53287;SDS011;39172;45.550;12.072;2022-10-31T20:51:33;25.38;;;14.77;;
53287;SDS011;39172;45.550;12.072;2022-10-31T20:57:34;24.08;;;13.65;;
53287;SDS011;39172;45.550;12.072;2022-10-31T21:03:35;26.73;;;14.52;;
53287;SDS011;39172;45.550;12.072;2022-10-31T21:09:36;15.73;;;8.65;;
53287;SDS011;39172;45.550;12.072;2022-10-31T21:15:37;22.35;;;12.68;;
53287;SDS011;39172;45.550;12.072;2022-10-31T21:21:38;24.67;;;14.93;;
53287;SDS011;39172;45.550;12.072;2022-10-31T21:27:39;21.65;;;12.82;;
53287;SDS011;39172;45.550;12.072;2022-10-31T21:33:40;24.02;;;14.45;;
53287;SDS011;39172;45.550;12.072;2022-10-31T21:39:41;19.48;;;11.93;;
53287;SDS011;39172;45.550;12.072;2022-10-31T21:45:42;14.27;;;8.90;;
53287;SDS011;39172;45.550;12.072;2022-10-31T21:51:43;17.92;;;11.23;;
53287;SDS011;39172;45.550;12.072;2022-10-31T21:57:46;14.20;;;9.00;;
53287;SDS011;39172;45.550;12.072;2022-10-31T22:03:48;19.15;;;11.30;;
53287;SDS011;39172;45.550;12.072;2022-10-31T22:09:49;18.25;;;11.30;;
53287;SDS011;39172;45.550;12.072;2022-10-31T22:15:50;15.40;;;10.20;;
53287;SDS011;39172;45.550;12.072;2022-10-31T22:21:50;17.98;;;10.60;;
53287;SDS011;39172;45.550;12.072;2022-10-31T22:27:51;19.08;;;11.73;;
53287;SDS011;39172;45.550;12.072;2022-10-31T22:33:53;21.80;;;13.15;;
53287;SDS011;39172;45.550;12.072;2022-10-31T22:39:54;25.23;;;14.63;;
53287;SDS011;39172;45.550;12.072;2022-10-31T22:45:55;26.65;;;17.38;;
53287;SDS011;39172;45.550;12.072;2022-10-31T22:52:00;21.58;;;13.20;;
53287;SDS011;39172;45.550;12.072;2022-10-31T22:58:03;21.55;;;12.30;;
53287;SDS011;39172;45.550;12.072;2022-10-31T23:04:03;25.00;;;15.63;;
53287;SDS011;39172;45.550;12.072;2022-10-31T23:10:05;22.70;;;14.43;;
53287;SDS011;39172;45.550;12.072;2022-10-31T23:16:09;19.40;;;12.60;;
53287;SDS011;39172;45.550;12.072;2022-10-31T23:22:11;23.35;;;14.23;;
53287;SDS011;39172;45.550;12.072;2022-10-31T23:28:12;19.88;;;12.32;;
53287;SDS011;39172;45.550;12.072;2022-10-31T23:34:13;20.80;;;13.13;;
53287;SDS011;39172;45.550;12.072;2022-10-31T23:40:13;20.88;;;14.00;;
53287;SDS011;39172;45.550;12.072;2022-10-31T23:46:15;18.77;;;13.02;;
53287;SDS011;39172;45.550;12.072;2022-10-31T23:52:16;17.48;;;10.77;;
53287;SDS011;39172;45.550;12.072;2022-10-31T23:58:17;16.35;;;11.32;;
